createdAt,value
2022-08-17T00:00:43.878Z,8.20
2022-08-17T00:05:30.845Z,8.37
2022-08-17T00:10:17.248Z,8.55
2022-08-17T00:15:02.594Z,9.30
2022-08-17T00:19:50.245Z,9.10
2022-08-17T00:24:35.611Z,7.43
2022-08-17T00:29:20.688Z,11.90
2022-08-17T00:34:08.908Z,7.95
2022-08-17T00:38:56.975Z,6.55
2022-08-17T00:43:45.729Z,9.18
2022-08-17T00:48:31.734Z,6.05
2022-08-17T00:53:17.218Z,10.25
2022-08-17T00:58:08.639Z,10.52
2022-08-17T01:07:39.374Z,9.35
2022-08-17T01:12:25.062Z,7.05
2022-08-17T01:17:13.265Z,6.22
2022-08-17T01:22:06.161Z,17.08
2022-08-17T01:26:53.906Z,11.30
2022-08-17T01:31:45.666Z,13.40
2022-08-17T01:36:30.809Z,14.32
2022-08-17T01:41:18.945Z,11.85
2022-08-17T01:46:06.979Z,13.10
2022-08-17T01:50:55.237Z,15.07
2022-08-17T01:55:43.942Z,10.90
2022-08-17T02:00:59.539Z,11.90
2022-08-17T02:05:39.291Z,10.73
2022-08-17T02:10:24.518Z,9.60
2022-08-17T02:15:21.150Z,11.02
2022-08-17T02:20:08.415Z,14.20
2022-08-17T02:25:00.784Z,10.35
2022-08-17T02:29:47.107Z,13.43
2022-08-17T02:34:32.556Z,8.77
2022-08-17T02:39:17.703Z,10.48
2022-08-17T02:44:06.491Z,7.97
2022-08-17T02:48:51.957Z,7.93
2022-08-17T02:53:37.277Z,8.40
2022-08-17T02:58:34.600Z,6.45
2022-08-17T03:03:23.604Z,6.22
2022-08-17T03:08:13.104Z,3.63
2022-08-17T03:12:59.687Z,5.32
2022-08-17T03:17:44.935Z,6.18
2022-08-17T03:22:36.933Z,8.20
2022-08-17T03:27:23.955Z,3.97
2022-08-17T03:32:14.840Z,3.58
2022-08-17T03:36:59.879Z,2.92
2022-08-17T03:41:47.804Z,4.97
2022-08-17T03:46:45.359Z,2.75
2022-08-17T03:51:43.079Z,4.93
2022-08-17T03:56:40.459Z,2.08
2022-08-17T04:01:28.847Z,4.95
2022-08-17T04:06:14.556Z,5.78
2022-08-17T04:11:00.760Z,2.95
2022-08-17T04:15:49.374Z,4.53
2022-08-17T04:20:37.828Z,5.10
2022-08-17T04:25:22.945Z,5.55
2022-08-17T04:30:10.236Z,6.25
2022-08-17T04:34:55.293Z,6.93
2022-08-17T04:40:04.350Z,7.35
2022-08-17T04:44:50.365Z,4.22
2022-08-17T04:49:35.468Z,8.13
2022-08-17T04:54:23.172Z,7.80
2022-08-17T04:59:13.628Z,6.15
2022-08-17T05:04:18.354Z,10.27
2022-08-17T05:09:08.277Z,5.68
2022-08-17T05:13:53.642Z,4.20
2022-08-17T05:18:41.709Z,8.25
2022-08-17T05:23:41.945Z,7.97
2022-08-17T05:28:30.318Z,8.13
2022-08-17T05:33:18.015Z,9.07
2022-08-17T05:38:08.122Z,8.90
2022-08-17T05:42:53.759Z,13.15
2022-08-17T05:47:40.936Z,7.50
2022-08-17T05:52:33.807Z,9.63
2022-08-17T05:57:47.427Z,10.88
2022-08-17T06:02:53.547Z,8.75
2022-08-17T06:07:49.090Z,11.68
2022-08-17T06:12:50.430Z,7.63
2022-08-17T06:17:37.518Z,10.88
2022-08-17T06:22:25.347Z,9.43
2022-08-17T06:27:16.752Z,10.07
2022-08-17T06:32:05.011Z,7.03
2022-08-17T06:37:00.591Z,6.78
2022-08-17T06:41:59.686Z,11.63
2022-08-17T06:46:49.243Z,11.57
2022-08-17T06:51:42.542Z,11.75
2022-08-17T06:56:53.458Z,10.38
2022-08-17T07:01:42.828Z,13.95
2022-08-17T07:06:32.338Z,5.70
2022-08-17T07:11:30.697Z,7.53
2022-08-17T07:16:21.807Z,7.80
2022-08-17T07:21:18.474Z,5.38
2022-08-17T07:26:08.376Z,3.38
2022-08-17T07:30:57.781Z,6.18
2022-08-17T07:35:44.482Z,7.13
2022-08-17T07:40:33.887Z,5.10
2022-08-17T07:45:31.234Z,5.72
2022-08-17T07:50:32.086Z,8.95
2022-08-17T07:55:29.632Z,11.15
2022-08-17T08:00:31.396Z,11.88
2022-08-17T08:05:48.753Z,13.88
2022-08-17T08:10:38.797Z,13.43
2022-08-17T08:15:39.535Z,9.63
2022-08-17T08:20:53.443Z,10.88
2022-08-17T08:26:00.289Z,8.38
2022-08-17T08:30:50.882Z,12.85
2022-08-17T08:35:42.176Z,13.95
2022-08-17T08:40:55.360Z,15.00
2022-08-17T08:45:53.213Z,13.40
2022-08-17T08:50:47.811Z,13.65
2022-08-17T08:55:43.287Z,12.98
2022-08-17T09:00:35.961Z,14.40
2022-08-17T09:05:34.409Z,10.38
2022-08-17T09:10:25.647Z,10.10
2022-08-17T09:15:18.791Z,12.20
2022-08-17T09:20:14.476Z,8.88
2022-08-17T09:25:17.337Z,5.28
2022-08-17T09:30:08.066Z,6.95
2022-08-17T09:34:55.587Z,4.93
2022-08-17T09:39:51.670Z,5.88
2022-08-17T09:44:43.098Z,5.90
2022-08-17T09:49:34.890Z,7.93
2022-08-17T09:54:39.967Z,3.95
2022-08-17T09:59:51.231Z,3.95
2022-08-17T10:04:50.470Z,10.73
2022-08-17T10:09:49.346Z,4.68
2022-08-17T10:14:44.497Z,8.27
2022-08-17T10:19:38.444Z,10.43
2022-08-17T10:24:39.632Z,10.25
2022-08-17T10:29:52.858Z,7.25
2022-08-17T10:34:56.179Z,7.78
2022-08-17T10:39:59.598Z,8.18
2022-08-17T10:44:51.905Z,9.20
2022-08-17T10:49:38.546Z,5.53
2022-08-17T10:54:43.197Z,6.93
2022-08-17T10:59:56.005Z,5.10
2022-08-17T11:04:57.112Z,6.07
2022-08-17T11:10:04.207Z,5.15
2022-08-17T11:15:04.626Z,6.57
2022-08-17T11:20:32.878Z,4.93
2022-08-17T11:25:21.044Z,3.15
2022-08-17T11:30:13.790Z,6.30
2022-08-17T11:35:12.560Z,3.95
2022-08-17T11:40:24.704Z,4.55
2022-08-17T11:45:33.980Z,2.65
2022-08-17T11:50:51.856Z,4.30
2022-08-17T11:56:05.144Z,5.32
2022-08-17T12:00:58.720Z,4.85
2022-08-17T12:05:44.205Z,3.60
2022-08-17T12:10:34.464Z,1.80
2022-08-17T12:15:22.682Z,4.20
2022-08-17T12:20:27.982Z,4.80
2022-08-17T12:25:19.268Z,3.17
2022-08-17T12:30:08.609Z,4.80
2022-08-17T12:34:54.871Z,1.83
2022-08-17T12:39:51.528Z,3.83
2022-08-17T12:44:46.109Z,2.30
2022-08-17T12:49:37.393Z,4.97
2022-08-17T12:54:31.602Z,2.75
2022-08-17T12:59:29.779Z,2.80
2022-08-17T13:04:18.822Z,3.72
2022-08-17T13:09:13.459Z,4.50
2022-08-17T13:14:10.813Z,2.22
2022-08-17T13:19:10.497Z,3.13
2022-08-17T13:24:04.390Z,2.42
2022-08-17T13:28:51.783Z,4.72
2022-08-17T13:33:44.722Z,1.70
2022-08-17T13:38:45.801Z,3.90
2022-08-17T13:43:48.664Z,1.23
2022-08-17T13:48:34.320Z,1.17
2022-08-17T13:53:22.537Z,4.05
2022-08-17T13:58:11.027Z,3.83
2022-08-17T14:02:56.119Z,1.90
2022-08-17T14:07:42.865Z,2.40
2022-08-17T14:12:30.258Z,3.92
2022-08-17T14:17:18.956Z,5.03
2022-08-17T14:22:05.089Z,4.05
2022-08-17T14:26:52.584Z,3.25
2022-08-17T14:31:37.952Z,3.53
2022-08-17T14:36:25.905Z,3.42
2022-08-17T14:41:11.475Z,5.10
2022-08-17T14:45:56.792Z,2.33
2022-08-17T14:50:44.302Z,2.33
2022-08-17T14:55:33.817Z,4.78
2022-08-17T15:00:20.013Z,3.17
2022-08-17T15:05:07.751Z,4.15
2022-08-17T15:09:52.928Z,3.58
2022-08-17T15:14:40.910Z,2.65
2022-08-17T15:19:26.181Z,3.75
2022-08-17T15:24:11.698Z,2.53
2022-08-17T15:28:57.476Z,12.40
2022-08-17T15:33:45.406Z,3.55
2022-08-17T15:38:39.373Z,2.38
2022-08-17T15:43:28.226Z,3.40
2022-08-17T15:48:14.430Z,3.15
2022-08-17T15:53:05.122Z,1.50
2022-08-17T15:57:50.527Z,3.57
2022-08-17T16:03:45.352Z,2.45
2022-08-17T16:07:43.450Z,2.97
2022-08-17T16:12:31.380Z,5.40
2022-08-17T16:17:40.330Z,4.22
2022-08-17T16:22:33.820Z,2.70
2022-08-17T16:27:18.898Z,5.43
2022-08-17T16:32:15.332Z,3.90
2022-08-17T16:37:00.724Z,2.72
2022-08-17T16:41:50.434Z,4.15
2022-08-17T16:46:36.873Z,4.63
2022-08-17T16:51:24.846Z,5.53
2022-08-17T16:56:10.282Z,5.60
2022-08-17T17:00:57.352Z,1.67
2022-08-17T17:05:58.731Z,5.18
2022-08-17T17:10:51.117Z,4.47
2022-08-17T17:15:47.937Z,6.75
2022-08-17T17:20:43.367Z,4.80
2022-08-17T17:25:32.509Z,5.30
2022-08-17T17:30:25.166Z,5.05
2022-08-17T17:35:16.285Z,4.13
2022-08-17T17:44:53.367Z,4.47
2022-08-17T17:49:44.096Z,3.67
2022-08-17T17:54:41.216Z,7.32
2022-08-17T17:59:38.321Z,4.40
2022-08-17T18:04:36.438Z,9.67
2022-08-17T18:09:35.991Z,8.35
2022-08-17T18:14:35.670Z,6.30
2022-08-17T18:19:25.228Z,5.72
2022-08-17T18:24:11.857Z,4.93
2022-08-17T18:28:59.532Z,5.82
2022-08-17T18:33:46.906Z,5.35
2022-08-17T18:38:35.885Z,6.28
2022-08-17T18:43:28.314Z,5.80
2022-08-17T18:48:38.730Z,5.78
2022-08-17T18:53:40.864Z,9.02
2022-08-17T18:58:28.737Z,5.82
2022-08-17T19:03:27.231Z,7.47
2022-08-17T19:08:25.905Z,7.70
2022-08-17T19:13:14.814Z,6.57
2022-08-17T19:18:17.803Z,6.65
2022-08-17T19:23:09.771Z,8.38
2022-08-17T19:28:03.962Z,6.90
2022-08-17T19:32:59.872Z,6.15
2022-08-17T19:37:54.903Z,7.53
2022-08-17T19:42:50.623Z,4.82
2022-08-17T19:47:55.178Z,6.97
2022-08-17T19:52:50.047Z,10.77
2022-08-17T19:57:44.952Z,11.55
2022-08-17T20:02:39.753Z,6.13
2022-08-17T20:07:32.168Z,9.02
2022-08-17T20:12:21.256Z,6.25
2022-08-17T20:17:07.391Z,5.47
2022-08-17T20:21:57.541Z,6.60
2022-08-17T20:26:58.061Z,6.22
2022-08-17T20:31:50.058Z,6.72
2022-08-17T20:36:37.087Z,8.98
2022-08-17T20:41:24.377Z,5.70
2022-08-17T20:46:33.152Z,13.93
2022-08-17T20:51:29.382Z,6.55
2022-08-17T20:56:14.456Z,10.65
2022-08-17T21:01:14.847Z,11.70
2022-08-17T21:06:16.876Z,10.70
2022-08-17T21:12:02.564Z,5.55
2022-08-17T21:16:41.443Z,8.00
2022-08-17T21:21:42.127Z,6.65
2022-08-17T21:26:50.357Z,7.80
2022-08-17T21:31:38.548Z,7.22
2022-08-17T21:36:32.628Z,8.00
2022-08-17T21:41:23.479Z,8.02
2022-08-17T21:46:13.570Z,7.28
2022-08-17T21:51:10.577Z,10.45
2022-08-17T21:55:58.314Z,8.63
2022-08-17T22:00:44.684Z,9.27
2022-08-17T22:05:37.273Z,9.93
2022-08-17T22:10:32.187Z,9.02
2022-08-17T22:15:20.768Z,7.35
2022-08-17T22:20:12.300Z,7.32
2022-08-17T22:29:53.255Z,6.35
2022-08-17T22:34:46.492Z,6.90
2022-08-17T22:39:45.010Z,7.97
2022-08-17T22:44:37.054Z,9.23
2022-08-17T22:49:30.126Z,5.93
2022-08-17T22:54:34.239Z,7.18
2022-08-17T22:59:45.405Z,9.05
2022-08-17T23:04:36.735Z,10.50
2022-08-17T23:09:25.094Z,9.03
2022-08-17T23:14:12.273Z,7.65
2022-08-17T23:18:59.980Z,8.45
2022-08-17T23:23:46.102Z,6.65
2022-08-17T23:28:35.051Z,9.65
2022-08-17T23:33:24.530Z,8.52
2022-08-17T23:38:10.358Z,7.85
2022-08-17T23:42:56.740Z,6.40
2022-08-17T23:47:47.129Z,6.05
2022-08-17T23:52:37.166Z,8.75
2022-08-17T23:57:33.842Z,6.03
